Aeroporto :
LOGIN :

Iscrizione | Disclaimer

   EN    FR    IT 

 










Sommario :    VFR   VFR Marginale   IFR   IFR Intensivo   IFR Molto Intensivo
Visibilità : 
Base nubi : 
>= 8 km
>= 3000ft
5 / 8 km
1000 / 3000 ft
1500m / 5 km
500 / 1000 ft
800 / 1500m
200 / 500 ft
< 800m
< 200 ft
Simboli :   Temporali  Nebbia  Neve Forte  Precipitazioni Forti  Vento > 20 kt
SIGMETs :   Varie  Temporali  Ghiacco  Turbolenza  Onda orograficha  Ceneri Vulcaniche






- Altitudine del aeroporto : 1202 ft
- Codice IATA : IGS


ETSI - Ingolstadt

ULTIMO METAR :
  • 271620Z 06002KT 9999 FEW040 SCT210 22/10 Q1015 BLU+

METARs OBSOLETI :
  • 271520Z 02004KT 9999 FEW040 22/10 Q1016 BLU+
  • 271500Z 36005KT 9999 FEW035 SCT110 21/10 Q1016 BLU+FCST CNL
  • 271420Z 09002KT 9999 FEW035 SCT110 21/12 Q1016 BLU+BLU+ TEMPO BLU
  • 271320Z 01004KT 9999 FEW030 SCT140 20/12 Q1017 BLU+BLU+ TEMPO WHT
  • 271220Z 01003KT 9999 FEW020 SCT090 BKN110 19/12 Q1018 BLU BLU TEMPO WHT

TAF TAF ETSI
Valido dal 27 a 14 ore il 27 a 23 ore UTC


271310Z 2714/2723 03005KT 9999 NSW FEW030 BKN090
TEMPO 2716/2723 34008KT 7000 SHRA BKN020 BKN060
PROB30 2718/2720 VRB10G25KT 3000 TSRA BKN015CB



MetMap, La meteo Aeronautica in un colpo d'occhio ! - Copyright ORBIFLY Dicembre 2007 - Disclaimer

ORBIFLY MET'MAP TEAM :

Programmazione e sviluppo : Alexandra Zaïnal
Concezione : Baudouin d'Aumeries
Supporto tecnico e logistico : Manuel Goepfert
Aiuto : Marc-Olivier Méhu
Aiuto per la traduzione : Arnaldo La Scala




FONTI E CREDITI :

   NOAA